createdAt,value
2019-04-26T00:00:41.021Z,17.27
2019-04-26T00:01:41.033Z,17.24
2019-04-26T00:02:41.018Z,17.24
2019-04-26T00:03:41.018Z,17.24
2019-04-26T00:04:41.017Z,17.26
2019-04-26T00:05:41.013Z,17.34
2019-04-26T00:06:41.013Z,17.24
2019-04-26T00:07:41.010Z,17.22
2019-04-26T00:08:41.010Z,17.14
2019-04-26T00:09:41.004Z,17.19
2019-04-26T00:10:41.004Z,17.12
2019-04-26T00:11:41.006Z,17.19
2019-04-26T00:12:41.009Z,17.16
2019-04-26T00:13:41.014Z,17.16
2019-04-26T00:14:40.999Z,17.04
2019-04-26T00:15:40.997Z,17.02
2019-04-26T00:16:40.993Z,17.01
2019-04-26T00:17:40.992Z,16.96
2019-04-26T00:18:40.987Z,17.05
2019-04-26T00:19:40.989Z,16.94
2019-04-26T00:20:40.989Z,16.96
2019-04-26T00:21:40.982Z,17.01
2019-04-26T00:22:40.982Z,16.99
2019-04-26T00:23:40.994Z,16.93
2019-04-26T00:24:40.992Z,16.90
2019-04-26T00:25:40.973Z,16.89
2019-04-26T00:26:40.971Z,16.90
2019-04-26T00:27:40.970Z,16.93
2019-04-26T00:28:40.968Z,16.91
2019-04-26T00:29:40.966Z,16.83
2019-04-26T00:30:40.964Z,16.91
2019-04-26T00:31:41.251Z,16.87
2019-04-26T00:32:40.958Z,16.93
2019-04-26T00:33:40.959Z,16.83
2019-04-26T00:34:40.957Z,16.74
2019-04-26T00:35:47.275Z,16.72
2019-04-26T00:36:40.959Z,16.66
2019-04-26T00:37:40.954Z,16.68
2019-04-26T00:38:40.946Z,16.71
2019-04-26T00:39:40.950Z,16.68
2019-04-26T00:40:40.942Z,16.66
2019-04-26T00:41:40.942Z,16.66
2019-04-26T00:42:40.939Z,16.66
2019-04-26T00:43:40.946Z,16.56
2019-04-26T00:44:40.945Z,16.51
2019-04-26T00:45:40.932Z,16.54
2019-04-26T00:46:40.933Z,16.50
2019-04-26T00:47:40.926Z,16.50
2019-04-26T00:48:40.925Z,16.38
2019-04-26T00:49:43.863Z,16.47
2019-04-26T00:50:40.923Z,16.43
2019-04-26T00:51:40.921Z,16.46
2019-04-26T00:52:40.982Z,16.38
2019-04-26T00:53:40.920Z,16.39
2019-04-26T00:54:40.915Z,16.41
2019-04-26T00:55:40.911Z,16.31
2019-04-26T00:56:40.907Z,16.33
2019-04-26T00:57:40.903Z,16.31
2019-04-26T00:58:40.918Z,16.32
2019-04-26T00:59:40.899Z,16.29
2019-04-26T01:00:40.898Z,16.31
2019-04-26T01:01:40.896Z,16.26
2019-04-26T01:02:41.695Z,16.23
2019-04-26T01:03:40.887Z,16.26
2019-04-26T01:04:40.885Z,16.17
2019-04-26T01:05:40.892Z,16.21
2019-04-26T01:06:40.882Z,16.26
2019-04-26T01:07:40.879Z,16.26
2019-04-26T01:08:40.880Z,16.20
2019-04-26T01:09:40.873Z,16.23
2019-04-26T01:10:40.870Z,16.12
2019-04-26T01:11:40.869Z,16.15
2019-04-26T01:12:40.866Z,16.15
2019-04-26T01:13:40.864Z,16.20
2019-04-26T01:14:40.861Z,16.04
2019-04-26T01:15:40.858Z,16.05
2019-04-26T01:16:40.853Z,16.04
2019-04-26T01:17:40.856Z,16.01
2019-04-26T01:18:40.850Z,16.09
2019-04-26T01:19:40.857Z,16.05
2019-04-26T01:20:40.851Z,16.00
2019-04-26T01:21:40.840Z,16.01
2019-04-26T01:22:40.844Z,15.94
2019-04-26T01:23:40.836Z,15.91
2019-04-26T01:24:40.834Z,15.94
2019-04-26T01:25:40.834Z,15.90
2019-04-26T01:26:40.830Z,15.90
2019-04-26T01:27:40.855Z,15.91
2019-04-26T01:28:40.826Z,15.86
2019-04-26T01:29:40.819Z,15.83
2019-04-26T01:30:40.832Z,15.91
2019-04-26T01:31:40.816Z,15.88
2019-04-26T01:32:40.811Z,15.84
2019-04-26T01:33:40.809Z,15.91
2019-04-26T01:34:40.805Z,15.88
2019-04-26T01:35:40.803Z,15.86
2019-04-26T01:36:40.804Z,15.88
2019-04-26T01:37:40.799Z,15.83
2019-04-26T01:38:40.802Z,15.80
2019-04-26T01:39:40.793Z,15.83
2019-04-26T01:40:40.790Z,15.75
2019-04-26T01:41:40.798Z,15.83
2019-04-26T01:42:40.783Z,15.70
2019-04-26T01:43:40.780Z,15.72
2019-04-26T01:44:40.799Z,15.76
2019-04-26T01:45:40.774Z,15.72
2019-04-26T01:46:40.773Z,15.76
2019-04-26T01:47:40.776Z,15.72
2019-04-26T01:48:40.767Z,15.73
2019-04-26T01:49:40.763Z,15.72
2019-04-26T01:50:40.761Z,15.76
2019-04-26T01:51:40.763Z,15.75
2019-04-26T01:52:40.755Z,15.75
2019-04-26T01:53:40.754Z,15.77
2019-04-26T01:54:40.757Z,15.75
2019-04-26T01:55:40.773Z,15.80
2019-04-26T01:56:40.745Z,15.67
2019-04-26T01:57:40.737Z,15.84
2019-04-26T01:58:40.751Z,15.84
2019-04-26T01:59:40.735Z,15.75
2019-04-26T02:00:40.730Z,15.76
2019-04-26T02:01:40.732Z,15.75
2019-04-26T02:02:40.725Z,15.76
2019-04-26T02:03:40.722Z,15.80
2019-04-26T02:04:40.719Z,15.76
2019-04-26T02:05:40.714Z,15.83
2019-04-26T02:06:40.711Z,15.80
2019-04-26T02:07:40.711Z,15.83
2019-04-26T02:08:40.722Z,15.84
2019-04-26T02:09:40.706Z,15.80
2019-04-26T02:10:40.702Z,15.83
2019-04-26T02:11:40.703Z,15.88
2019-04-26T02:12:40.700Z,15.90
2019-04-26T02:13:40.693Z,15.90
2019-04-26T02:14:40.691Z,15.76
2019-04-26T02:15:40.685Z,15.84
2019-04-26T02:16:40.684Z,15.80
2019-04-26T02:17:40.681Z,15.79
2019-04-26T02:18:40.681Z,15.92
2019-04-26T02:19:40.677Z,15.91
2019-04-26T02:20:40.674Z,15.88
2019-04-26T02:21:40.669Z,15.94
2019-04-26T02:22:40.678Z,15.95
2019-04-26T02:23:40.681Z,15.86
2019-04-26T02:24:40.661Z,15.92
2019-04-26T02:25:40.658Z,15.92
2019-04-26T02:26:40.653Z,15.91
2019-04-26T02:27:40.653Z,15.84
2019-04-26T02:28:40.652Z,15.88
2019-04-26T02:29:40.651Z,15.94
2019-04-26T02:30:40.645Z,15.90
2019-04-26T02:31:40.642Z,15.94
2019-04-26T02:32:40.652Z,15.92
2019-04-26T02:33:40.640Z,15.94
2019-04-26T02:34:41.007Z,15.91
2019-04-26T02:35:40.629Z,15.91
2019-04-26T02:36:56.108Z,15.88
2019-04-26T02:37:40.629Z,15.92
2019-04-26T02:38:40.625Z,15.91
2019-04-26T02:39:40.620Z,15.92
2019-04-26T02:40:40.618Z,15.95
2019-04-26T02:41:40.612Z,15.94
2019-04-26T02:42:40.623Z,15.91
2019-04-26T02:43:40.632Z,15.95
2019-04-26T02:44:40.611Z,15.91
2019-04-26T02:45:40.603Z,16.00
2019-04-26T02:46:40.600Z,15.97
2019-04-26T02:47:40.598Z,16.01
2019-04-26T02:48:40.598Z,16.02
2019-04-26T02:49:40.596Z,15.92
2019-04-26T02:50:40.598Z,15.98
2019-04-26T02:51:40.587Z,15.95
2019-04-26T02:52:40.584Z,15.92
2019-04-26T02:53:40.601Z,15.97
2019-04-26T02:54:40.581Z,15.92
2019-04-26T02:55:42.701Z,15.91
2019-04-26T02:56:40.586Z,15.86
2019-04-26T02:57:40.571Z,15.95
2019-04-26T02:58:40.568Z,15.88
2019-04-26T02:59:41.024Z,15.88
2019-04-26T03:00:40.561Z,15.90
2019-04-26T03:01:40.561Z,15.84
2019-04-26T03:02:40.637Z,15.82
2019-04-26T03:03:40.554Z,15.90
2019-04-26T03:04:40.549Z,15.79
2019-04-26T03:05:41.477Z,15.82
2019-04-26T03:06:41.209Z,15.67
2019-04-26T03:07:40.539Z,15.82
2019-04-26T03:08:40.547Z,15.77
2019-04-26T03:09:40.555Z,15.72
2019-04-26T03:10:40.596Z,15.61
2019-04-26T03:11:40.531Z,15.62
2019-04-26T03:12:40.526Z,15.67
2019-04-26T03:13:40.525Z,15.59
2019-04-26T03:14:41.963Z,15.47
2019-04-26T03:15:40.518Z,15.52
2019-04-26T03:16:41.502Z,15.42
2019-04-26T03:17:40.938Z,15.49
2019-04-26T03:18:41.603Z,15.39
2019-04-26T03:19:40.865Z,15.47
2019-04-26T03:20:42.244Z,15.42
2019-04-26T03:21:41.471Z,15.46
2019-04-26T03:22:41.161Z,15.44
2019-04-26T03:23:53.260Z,15.37
2019-04-26T03:24:42.164Z,15.37
2019-04-26T03:25:42.088Z,15.39
2019-04-26T03:26:41.553Z,15.36
2019-04-26T03:27:43.029Z,15.31
2019-04-26T03:28:43.456Z,15.21
2019-04-26T03:29:41.958Z,15.24
2019-04-26T03:30:48.635Z,15.25
2019-04-26T03:31:51.910Z,15.29
2019-04-26T03:32:50.319Z,15.28
2019-04-26T03:33:49.967Z,15.24
2019-04-26T03:34:50.750Z,15.25
2019-04-26T03:35:54.550Z,15.27
2019-04-26T03:36:42.064Z,15.27
2019-04-26T03:37:42.007Z,15.25
2019-04-26T03:38:41.916Z,15.27
2019-04-26T03:39:42.416Z,15.27
2019-04-26T03:40:42.441Z,15.24
2019-04-26T03:41:41.086Z,15.22
2019-04-26T03:42:42.201Z,15.19
2019-04-26T03:43:41.356Z,15.15
2019-04-26T03:44:41.144Z,15.15
2019-04-26T03:45:42.471Z,15.14
2019-04-26T03:46:41.840Z,15.15
2019-04-26T03:47:42.666Z,15.18
2019-04-26T03:48:41.708Z,15.19
2019-04-26T03:49:42.053Z,15.19
2019-04-26T03:50:41.023Z,15.14
2019-04-26T03:51:41.143Z,15.14
2019-04-26T03:52:42.112Z,15.10
2019-04-26T03:53:41.871Z,15.06
2019-04-26T03:54:41.064Z,15.10
2019-04-26T03:55:41.949Z,15.10
2019-04-26T03:56:41.819Z,15.07
2019-04-26T03:57:42.166Z,15.09
2019-04-26T03:58:41.793Z,15.10
2019-04-26T03:59:42.170Z,15.10
2019-04-26T04:00:41.475Z,15.11
2019-04-26T04:01:41.267Z,15.09
2019-04-26T04:02:41.550Z,15.15
2019-04-26T04:03:43.156Z,15.10
2019-04-26T04:04:41.603Z,15.19
2019-04-26T04:05:41.979Z,15.17
2019-04-26T04:06:56.359Z,15.14
2019-04-26T04:07:47.283Z,15.11
2019-04-26T04:08:41.991Z,15.18
2019-04-26T04:09:41.449Z,15.14
2019-04-26T04:10:41.944Z,15.25
2019-04-26T04:11:42.305Z,15.19
2019-04-26T04:12:42.157Z,15.17
2019-04-26T04:13:43.264Z,15.15
2019-04-26T04:14:41.938Z,15.07
2019-04-26T04:15:41.934Z,15.10
2019-04-26T04:16:42.443Z,15.09
2019-04-26T04:17:43.296Z,15.02
2019-04-26T04:18:41.770Z,15.11
2019-04-26T04:19:41.883Z,15.09
2019-04-26T04:20:41.065Z,15.03
2019-04-26T04:21:41.231Z,14.94
2019-04-26T04:22:41.773Z,15.03
2019-04-26T04:23:41.866Z,15.02
2019-04-26T04:24:41.637Z,15.03
2019-04-26T04:25:42.355Z,15.11
2019-04-26T04:26:41.500Z,15.15
2019-04-26T04:27:41.952Z,15.10
2019-04-26T04:28:42.052Z,15.19
2019-04-26T04:29:47.140Z,15.15
2019-04-26T04:30:41.919Z,15.15
2019-04-26T04:31:41.656Z,15.10
2019-04-26T04:32:41.904Z,15.11
2019-04-26T04:33:42.654Z,15.17
2019-04-26T04:34:42.132Z,15.17
2019-04-26T04:35:42.251Z,15.10
2019-04-26T04:36:41.725Z,15.10
2019-04-26T04:38:02.188Z,15.06
2019-04-26T04:38:42.049Z,15.07
2019-04-26T04:39:42.059Z,15.18
2019-04-26T04:40:40.866Z,15.14
2019-04-26T04:41:41.029Z,15.29
2019-04-26T04:42:41.500Z,15.37
2019-04-26T04:43:41.854Z,15.36
2019-04-26T04:44:42.337Z,15.49
2019-04-26T04:45:41.732Z,15.54
2019-04-26T04:46:41.743Z,15.67
2019-04-26T04:47:41.228Z,15.86
2019-04-26T04:48:41.169Z,16.16
2019-04-26T04:49:41.212Z,16.33
2019-04-26T04:50:40.960Z,16.39
2019-04-26T04:51:40.854Z,16.38
2019-04-26T04:52:42.501Z,16.31
2019-04-26T04:53:41.186Z,16.12
2019-04-26T04:54:41.568Z,16.05
2019-04-26T04:55:42.818Z,16.05
2019-04-26T04:56:41.512Z,15.95
2019-04-26T04:57:40.170Z,15.97
2019-04-26T04:58:40.165Z,15.90
2019-04-26T04:59:40.163Z,15.92
2019-04-26T05:00:40.160Z,15.92
2019-04-26T05:01:40.158Z,15.84
2019-04-26T05:02:40.166Z,16.02
2019-04-26T05:03:40.166Z,16.00
2019-04-26T05:04:40.156Z,15.94
2019-04-26T05:05:40.158Z,15.94
2019-04-26T05:06:40.143Z,15.98
2019-04-26T05:07:40.140Z,16.04
2019-04-26T05:08:40.135Z,16.00
2019-04-26T05:09:40.183Z,16.09
2019-04-26T05:10:40.130Z,16.05
2019-04-26T05:11:40.129Z,16.16
2019-04-26T05:12:40.126Z,16.15
2019-04-26T05:13:40.121Z,16.13
2019-04-26T05:14:40.119Z,16.17
2019-04-26T05:15:40.114Z,16.23
2019-04-26T05:16:40.123Z,16.15
2019-04-26T05:17:40.110Z,16.29
2019-04-26T05:18:40.105Z,16.31
2019-04-26T05:19:40.122Z,16.32
2019-04-26T05:20:40.116Z,16.26
2019-04-26T05:21:40.099Z,16.36
2019-04-26T05:22:40.098Z,16.46
2019-04-26T05:23:40.095Z,16.49
2019-04-26T05:24:40.102Z,16.54
2019-04-26T05:25:40.494Z,16.72
2019-04-26T05:26:40.084Z,16.94
2019-04-26T05:27:40.085Z,17.16
2019-04-26T05:28:40.083Z,17.42
2019-04-26T05:29:40.088Z,17.68
2019-04-26T05:30:40.076Z,18.04
2019-04-26T05:31:40.074Z,18.23
2019-04-26T05:32:40.078Z,18.20
2019-04-26T05:33:40.068Z,18.28
2019-04-26T05:34:40.069Z,18.37
2019-04-26T05:35:40.070Z,18.55
2019-04-26T05:36:40.065Z,18.74
2019-04-26T05:37:40.068Z,18.80
2019-04-26T05:38:40.061Z,18.60
2019-04-26T05:39:40.076Z,18.41
2019-04-26T05:40:40.059Z,18.47
2019-04-26T05:41:40.055Z,18.40
2019-04-26T05:42:40.056Z,18.23
2019-04-26T05:43:40.052Z,18.26
2019-04-26T05:44:40.073Z,18.22
2019-04-26T05:45:40.648Z,18.13
2019-04-26T05:46:40.049Z,18.01
2019-04-26T05:47:40.046Z,17.89
2019-04-26T05:48:40.052Z,17.82
2019-04-26T05:49:40.056Z,17.80
2019-04-26T05:50:40.041Z,17.70
2019-04-26T05:51:40.040Z,17.71
2019-04-26T05:52:40.041Z,17.56
2019-04-26T05:53:40.047Z,17.60
2019-04-26T05:54:40.038Z,17.59
2019-04-26T05:55:40.035Z,17.67
2019-04-26T05:56:40.035Z,17.65
2019-04-26T05:57:40.034Z,17.67
2019-04-26T05:58:40.032Z,17.71
2019-04-26T05:59:40.029Z,17.74
2019-04-26T06:00:40.028Z,17.72
2019-04-26T06:01:40.034Z,17.74
2019-04-26T06:02:40.025Z,17.76
2019-04-26T06:03:40.024Z,17.79
2019-04-26T06:04:40.022Z,17.70
2019-04-26T06:05:40.024Z,17.71
2019-04-26T06:06:40.020Z,17.72
2019-04-26T06:07:40.022Z,17.72
2019-04-26T06:08:40.026Z,17.70
2019-04-26T06:09:40.015Z,17.72
2019-04-26T06:10:40.026Z,17.70
2019-04-26T06:11:40.015Z,17.76
2019-04-26T06:12:40.011Z,17.74
2019-04-26T06:13:40.009Z,17.71
2019-04-26T06:14:40.014Z,17.67
2019-04-26T06:15:40.074Z,17.68
2019-04-26T06:16:40.006Z,17.59
2019-04-26T06:17:40.003Z,17.56
2019-04-26T06:18:40.034Z,17.60
2019-04-26T06:19:40.001Z,17.59
2019-04-26T06:20:40.001Z,17.60
2019-04-26T06:21:40.008Z,17.64
2019-04-26T06:22:40.002Z,17.59
2019-04-26T06:23:40.004Z,17.56
2019-04-26T06:24:39.997Z,17.70
2019-04-26T06:25:39.992Z,17.67
2019-04-26T06:26:41.556Z,17.67
2019-04-26T06:27:39.998Z,17.71
2019-04-26T06:28:39.992Z,17.68
2019-04-26T06:29:39.986Z,17.60
2019-04-26T06:30:45.574Z,17.60
2019-04-26T06:31:39.994Z,17.59
2019-04-26T06:32:40.020Z,17.49
2019-04-26T06:33:39.981Z,17.57
2019-04-26T06:34:39.982Z,17.46
2019-04-26T06:35:39.982Z,17.52
2019-04-26T06:36:39.984Z,17.56
2019-04-26T06:37:39.975Z,17.44
2019-04-26T06:38:44.032Z,17.38
2019-04-26T06:39:39.973Z,17.42
2019-04-26T06:40:42.015Z,17.42
2019-04-26T06:41:39.970Z,17.33
2019-04-26T06:42:39.966Z,17.29
2019-04-26T06:43:39.968Z,17.30
2019-04-26T06:44:39.976Z,17.24
2019-04-26T06:45:40.025Z,17.27
2019-04-26T06:46:39.961Z,17.29
2019-04-26T06:47:39.962Z,17.33
2019-04-26T06:48:39.983Z,17.39
2019-04-26T06:49:39.955Z,17.41
2019-04-26T06:50:39.960Z,17.34
2019-04-26T06:51:39.976Z,17.31
2019-04-26T06:52:39.951Z,17.24
2019-04-26T06:53:39.950Z,17.27
2019-04-26T06:54:39.946Z,17.22
2019-04-26T06:55:39.972Z,17.24
2019-04-26T06:56:39.943Z,17.27
2019-04-26T06:57:39.940Z,17.22
2019-04-26T06:58:39.945Z,17.22
2019-04-26T06:59:39.937Z,17.26
2019-04-26T07:00:39.934Z,17.24
2019-04-26T07:01:39.935Z,17.20
2019-04-26T07:02:39.936Z,17.20
2019-04-26T07:03:39.930Z,17.26
2019-04-26T07:04:39.927Z,17.33
2019-04-26T07:05:39.930Z,17.29
2019-04-26T07:06:39.927Z,17.26
2019-04-26T07:07:39.931Z,17.24
2019-04-26T07:08:39.924Z,17.27
2019-04-26T07:09:39.918Z,17.31
2019-04-26T07:10:39.918Z,17.24
2019-04-26T07:11:40.975Z,17.30
2019-04-26T07:12:39.913Z,17.27
2019-04-26T07:13:39.920Z,17.33
2019-04-26T07:14:39.907Z,17.23
2019-04-26T07:15:39.906Z,17.24
2019-04-26T07:16:39.911Z,17.26
2019-04-26T07:17:39.916Z,17.30
2019-04-26T07:18:39.911Z,17.34
2019-04-26T07:19:39.902Z,17.29
2019-04-26T07:20:39.896Z,17.22
2019-04-26T07:21:39.898Z,17.29
2019-04-26T07:22:39.896Z,17.27
2019-04-26T07:23:39.895Z,17.33
2019-04-26T07:24:39.895Z,17.33
2019-04-26T07:25:39.888Z,17.39
2019-04-26T07:26:39.903Z,17.34
2019-04-26T07:27:39.912Z,17.38
2019-04-26T07:28:39.882Z,17.46
2019-04-26T07:29:39.919Z,17.38
2019-04-26T07:30:39.881Z,17.39
2019-04-26T07:31:39.878Z,17.48
2019-04-26T07:32:39.880Z,17.34
2019-04-26T07:33:39.956Z,17.26
2019-04-26T07:34:39.874Z,17.36
2019-04-26T07:35:39.875Z,17.41
2019-04-26T07:36:39.870Z,17.44
2019-04-26T07:37:39.867Z,17.48
2019-04-26T07:38:39.876Z,17.57
2019-04-26T07:39:39.864Z,17.51
2019-04-26T07:40:39.872Z,17.45
2019-04-26T07:41:39.862Z,17.44
2019-04-26T07:42:39.859Z,17.63
2019-04-26T07:43:39.902Z,17.60
2019-04-26T07:44:39.854Z,17.63
2019-04-26T07:45:39.851Z,17.65
2019-04-26T07:46:39.853Z,17.80
2019-04-26T07:47:39.849Z,17.82
2019-04-26T07:48:39.848Z,17.89
2019-04-26T07:49:39.848Z,17.98
2019-04-26T07:50:39.847Z,18.03
2019-04-26T07:51:39.859Z,18.00
2019-04-26T07:52:39.849Z,18.03
2019-04-26T07:53:39.844Z,18.07
2019-04-26T07:54:39.875Z,18.16
2019-04-26T07:55:39.901Z,18.23
2019-04-26T07:56:39.889Z,18.26
2019-04-26T07:57:40.529Z,18.33
2019-04-26T07:58:42.530Z,18.41
2019-04-26T07:59:39.866Z,18.52
2019-04-26T08:00:45.015Z,18.55
2019-04-26T08:01:39.963Z,18.60
2019-04-26T08:02:39.988Z,18.68
2019-04-26T08:03:39.946Z,18.74
2019-04-26T08:04:39.885Z,18.86
2019-04-26T08:05:39.895Z,18.81
2019-04-26T08:06:39.824Z,18.89
2019-04-26T08:07:39.897Z,18.84
2019-04-26T08:08:40.580Z,18.99
2019-04-26T08:09:39.825Z,18.96
2019-04-26T08:10:39.848Z,18.90
2019-04-26T08:11:39.826Z,19.08
2019-04-26T08:12:39.843Z,19.07
2019-04-26T08:13:39.835Z,18.99
2019-04-26T08:14:39.821Z,19.12
2019-04-26T08:15:39.840Z,19.08
2019-04-26T08:16:39.896Z,19.11
2019-04-26T08:17:39.885Z,19.12
2019-04-26T08:18:39.996Z,19.16
2019-04-26T08:19:39.862Z,19.19
2019-04-26T08:20:39.853Z,19.18
2019-04-26T08:21:42.770Z,19.31
2019-04-26T08:22:39.936Z,19.26
2019-04-26T08:23:42.149Z,19.18
2019-04-26T08:24:39.820Z,19.19
2019-04-26T08:25:39.822Z,19.22
2019-04-26T08:26:39.828Z,19.15
2019-04-26T08:27:39.823Z,19.31
2019-04-26T08:28:39.815Z,19.30
2019-04-26T08:29:39.831Z,19.34
2019-04-26T08:30:40.529Z,19.48
2019-04-26T08:31:39.943Z,19.58
2019-04-26T08:32:40.516Z,19.56
2019-04-26T08:33:40.414Z,19.69
2019-04-26T08:34:39.927Z,19.70
2019-04-26T08:35:39.822Z,19.69
2019-04-26T08:36:45.945Z,19.58
2019-04-26T08:37:39.815Z,19.63
2019-04-26T08:38:40.039Z,19.66
2019-04-26T08:39:45.502Z,19.58
2019-04-26T08:40:39.818Z,19.70
2019-04-26T08:41:40.235Z,19.55
2019-04-26T08:42:39.814Z,19.56
2019-04-26T08:43:40.150Z,19.64
2019-04-26T08:44:39.813Z,19.71
2019-04-26T08:45:40.547Z,19.73
2019-04-26T08:46:39.814Z,19.84
2019-04-26T08:47:39.822Z,19.79
2019-04-26T08:48:39.821Z,19.86
2019-04-26T08:49:40.085Z,19.85
2019-04-26T08:50:42.205Z,19.89
2019-04-26T08:51:39.937Z,19.91
2019-04-26T08:52:39.817Z,20.00
2019-04-26T08:53:39.819Z,19.96
2019-04-26T08:54:39.830Z,20.07
2019-04-26T08:55:39.817Z,20.21
2019-04-26T08:56:39.816Z,20.63
2019-04-26T08:57:39.823Z,21.06
2019-04-26T08:58:39.824Z,21.70
2019-04-26T08:59:39.819Z,22.50
2019-04-26T09:00:39.819Z,23.12
2019-04-26T09:01:42.063Z,23.74
2019-04-26T09:02:39.827Z,24.02
2019-04-26T09:03:39.827Z,24.51
2019-04-26T09:04:41.600Z,25.06
2019-04-26T09:05:39.861Z,25.50
2019-04-26T09:06:39.832Z,25.84
2019-04-26T09:07:40.104Z,26.16
2019-04-26T09:08:43.500Z,26.38
2019-04-26T09:09:39.834Z,26.15
2019-04-26T09:10:43.337Z,25.81
2019-04-26T09:11:39.841Z,25.32
2019-04-26T09:12:39.847Z,24.92
2019-04-26T09:13:39.882Z,24.40
2019-04-26T09:14:40.847Z,24.11
2019-04-26T09:15:40.733Z,23.77
2019-04-26T09:16:49.884Z,23.32
2019-04-26T09:17:39.860Z,23.02
2019-04-26T09:18:43.610Z,22.81
2019-04-26T09:19:39.893Z,22.36
2019-04-26T09:20:42.938Z,22.29
2019-04-26T09:21:39.873Z,22.26
2019-04-26T09:22:39.903Z,22.10
2019-04-26T09:23:40.589Z,22.06
2019-04-26T09:24:39.888Z,21.82
2019-04-26T09:25:39.877Z,21.69
2019-04-26T09:26:42.446Z,21.73
2019-04-26T09:27:39.882Z,21.69
2019-04-26T09:28:39.882Z,21.61
2019-04-26T09:29:39.933Z,21.52
2019-04-26T09:30:42.273Z,21.66
2019-04-26T09:31:39.885Z,21.51
2019-04-26T09:32:39.889Z,21.50
2019-04-26T09:33:39.893Z,21.43
2019-04-26T09:34:41.293Z,21.39
2019-04-26T09:35:39.896Z,21.42
2019-04-26T09:36:39.894Z,21.43
2019-04-26T09:37:39.896Z,21.46
2019-04-26T09:38:39.906Z,21.52
2019-04-26T09:39:41.692Z,21.50
2019-04-26T09:40:39.904Z,21.61
2019-04-26T09:41:39.903Z,21.66
2019-04-26T09:42:41.022Z,21.69
2019-04-26T09:43:39.909Z,21.70
2019-04-26T09:44:41.320Z,21.72
2019-04-26T09:45:39.928Z,21.83
2019-04-26T09:46:39.911Z,21.79
2019-04-26T09:47:39.942Z,21.83
2019-04-26T09:48:39.927Z,21.91
2019-04-26T09:49:41.163Z,21.91
2019-04-26T09:50:39.918Z,21.93
2019-04-26T09:51:40.495Z,21.93
2019-04-26T09:52:39.925Z,21.91
2019-04-26T09:53:43.511Z,22.00
2019-04-26T09:54:39.926Z,22.00
2019-04-26T09:55:39.926Z,21.98
2019-04-26T09:56:39.928Z,22.00
2019-04-26T09:57:39.930Z,21.99
2019-04-26T09:58:39.932Z,21.99
2019-04-26T09:59:41.105Z,22.00
2019-04-26T10:00:39.937Z,21.98
2019-04-26T10:01:39.938Z,21.98
2019-04-26T10:02:39.941Z,21.96
2019-04-26T10:03:39.941Z,21.99
2019-04-26T10:04:39.944Z,21.95
2019-04-26T10:05:39.945Z,21.91
2019-04-26T10:06:39.949Z,21.79
2019-04-26T10:07:39.949Z,21.58
2019-04-26T10:08:43.341Z,21.46
2019-04-26T10:09:39.964Z,21.51
2019-04-26T10:10:39.952Z,21.46
2019-04-26T10:11:43.480Z,21.50
2019-04-26T10:12:39.957Z,21.62
2019-04-26T10:13:39.955Z,21.66
2019-04-26T10:14:39.961Z,21.66
2019-04-26T10:15:39.961Z,21.77
2019-04-26T10:16:42.178Z,21.72
2019-04-26T10:17:39.969Z,21.75
2019-04-26T10:18:39.967Z,21.67
2019-04-26T10:19:39.966Z,21.73
2019-04-26T10:20:39.992Z,21.85
2019-04-26T10:21:40.031Z,21.88
2019-04-26T10:22:39.974Z,21.95
2019-04-26T10:23:40.027Z,21.88
2019-04-26T10:24:39.977Z,21.77
2019-04-26T10:25:39.989Z,21.76
2019-04-26T10:26:39.981Z,21.77
2019-04-26T10:27:40.689Z,21.82
2019-04-26T10:28:39.990Z,21.83
2019-04-26T10:29:39.989Z,21.83
2019-04-26T10:30:42.282Z,21.91
2019-04-26T10:31:40.016Z,21.98
2019-04-26T10:32:39.991Z,22.00
2019-04-26T10:33:39.993Z,22.00
2019-04-26T10:34:42.668Z,22.02
2019-04-26T10:35:39.997Z,21.89
2019-04-26T10:36:40.011Z,21.98
2019-04-26T10:37:43.699Z,22.13
2019-04-26T10:38:40.002Z,22.29
2019-04-26T10:39:40.004Z,22.30
2019-04-26T10:40:40.008Z,22.30
2019-04-26T10:41:40.061Z,22.32
2019-04-26T10:42:40.015Z,22.39
2019-04-26T10:43:40.015Z,22.38
2019-04-26T10:44:41.095Z,22.50
2019-04-26T10:45:40.027Z,22.78
2019-04-26T10:46:40.017Z,22.94
2019-04-26T10:47:40.025Z,22.99
2019-04-26T10:48:41.416Z,23.48
2019-04-26T10:49:40.024Z,23.47
2019-04-26T10:50:40.044Z,23.32
2019-04-26T10:51:41.922Z,23.18
2019-04-26T10:52:40.035Z,23.15
2019-04-26T10:53:40.036Z,23.13
2019-04-26T10:54:40.988Z,23.05
2019-04-26T10:55:40.042Z,22.94
2019-04-26T10:56:40.052Z,22.69
2019-04-26T10:57:40.047Z,22.65
2019-04-26T10:58:40.049Z,22.62
2019-04-26T10:59:44.007Z,22.55
2019-04-26T11:00:40.061Z,22.45
2019-04-26T11:01:40.059Z,22.44
2019-04-26T11:02:40.074Z,22.38
2019-04-26T11:03:40.347Z,22.29
2019-04-26T11:04:41.469Z,22.32
2019-04-26T11:05:40.068Z,22.33
2019-04-26T11:06:40.074Z,22.28
2019-04-26T11:07:40.084Z,22.29
2019-04-26T11:08:40.081Z,22.29
2019-04-26T11:09:40.079Z,22.32
2019-04-26T11:10:48.613Z,22.28
2019-04-26T11:11:40.080Z,22.13
2019-04-26T11:12:43.414Z,22.18
2019-04-26T11:13:40.089Z,22.26
2019-04-26T11:14:40.088Z,22.26
2019-04-26T11:15:40.090Z,22.20
2019-04-26T11:16:41.171Z,22.14
2019-04-26T11:17:41.660Z,22.10
2019-04-26T11:18:40.123Z,21.99
2019-04-26T11:19:40.098Z,21.96
2019-04-26T11:20:41.428Z,22.06
2019-04-26T11:21:40.102Z,22.08
2019-04-26T11:22:40.107Z,22.08
2019-04-26T11:23:41.021Z,22.10
2019-04-26T11:24:40.124Z,22.11
2019-04-26T11:25:40.189Z,22.28
2019-04-26T11:26:41.601Z,22.23
2019-04-26T11:27:43.707Z,22.22
2019-04-26T11:28:41.988Z,22.04
2019-04-26T11:29:52.940Z,21.70
2019-04-26T11:30:40.155Z,21.57
2019-04-26T11:31:40.156Z,21.67
2019-04-26T11:32:40.128Z,21.66
2019-04-26T11:33:45.128Z,21.51
2019-04-26T11:34:42.819Z,21.39
2019-04-26T11:35:40.228Z,21.48
2019-04-26T11:36:41.780Z,21.52
2019-04-26T11:37:40.147Z,21.54
2019-04-26T11:38:40.192Z,21.46
2019-04-26T11:39:40.815Z,21.39
2019-04-26T11:40:40.174Z,21.48
2019-04-26T11:41:40.146Z,21.46
2019-04-26T11:42:41.967Z,21.48
2019-04-26T11:43:40.151Z,21.57
2019-04-26T11:44:40.153Z,21.62
2019-04-26T11:45:40.153Z,21.61
2019-04-26T11:46:44.833Z,21.66
2019-04-26T11:47:54.377Z,21.55
2019-04-26T11:48:41.590Z,21.57
2019-04-26T11:49:41.487Z,21.60
2019-04-26T11:50:41.247Z,21.61
2019-04-26T11:51:40.171Z,21.57
2019-04-26T11:52:40.194Z,21.45
2019-04-26T11:53:44.667Z,21.61
2019-04-26T11:54:40.171Z,21.67
2019-04-26T11:55:40.216Z,21.57
2019-04-26T11:56:40.202Z,21.51
2019-04-26T11:57:43.484Z,21.46
2019-04-26T11:58:40.178Z,21.45
2019-04-26T11:59:40.192Z,21.48
2019-04-26T12:00:40.208Z,21.33
2019-04-26T12:01:40.703Z,21.36
2019-04-26T12:02:40.221Z,21.22
2019-04-26T12:03:40.204Z,21.24
2019-04-26T12:04:40.191Z,21.17
2019-04-26T12:05:40.290Z,21.21
2019-04-26T12:06:40.217Z,21.17
2019-04-26T12:07:41.101Z,21.17
2019-04-26T12:08:40.196Z,21.09
2019-04-26T12:09:40.206Z,20.97
2019-04-26T12:10:43.905Z,21.00
2019-04-26T12:11:49.425Z,21.03
2019-04-26T12:12:43.115Z,20.96
2019-04-26T12:13:40.201Z,20.92
2019-04-26T12:14:40.203Z,20.84
2019-04-26T12:15:43.835Z,20.93
2019-04-26T12:16:48.153Z,20.99
2019-04-26T12:17:40.209Z,21.05
2019-04-26T12:18:44.235Z,21.14
2019-04-26T12:19:40.211Z,21.15
2019-04-26T12:20:40.215Z,21.29
2019-04-26T12:21:40.212Z,21.32
2019-04-26T12:22:43.376Z,21.36
2019-04-26T12:23:40.217Z,21.24
2019-04-26T12:24:40.220Z,21.30
2019-04-26T12:25:43.238Z,21.22
2019-04-26T12:26:43.682Z,21.11
2019-04-26T12:27:40.274Z,21.06
2019-04-26T12:28:41.343Z,21.15
2019-04-26T12:29:40.235Z,21.12
2019-04-26T12:30:40.232Z,21.09
2019-04-26T12:31:40.233Z,21.07
2019-04-26T12:32:40.234Z,21.12
2019-04-26T12:33:43.583Z,21.12
2019-04-26T12:34:40.233Z,21.24
2019-04-26T12:35:40.279Z,21.27
2019-04-26T12:36:40.527Z,21.22
2019-04-26T12:37:40.243Z,21.27
2019-04-26T12:38:40.243Z,21.14
2019-04-26T12:39:40.263Z,21.20
2019-04-26T12:40:42.299Z,21.21
2019-04-26T12:41:40.939Z,21.24
2019-04-26T12:42:43.410Z,21.22
2019-04-26T12:43:40.275Z,21.22
2019-04-26T12:44:41.235Z,21.11
2019-04-26T12:45:40.292Z,20.92
2019-04-26T12:46:40.253Z,21.17
2019-04-26T12:47:40.397Z,21.17
2019-04-26T12:48:40.414Z,21.25
2019-04-26T12:49:40.259Z,21.33
2019-04-26T12:50:40.260Z,21.36
2019-04-26T12:51:42.860Z,21.42
2019-04-26T12:52:40.268Z,21.60